createdAt,value
2018-05-08T00:00:17.723Z,60.00
2018-05-08T00:02:45.211Z,60.40
2018-05-08T00:05:12.712Z,60.50
2018-05-08T00:07:40.608Z,60.50
2018-05-08T00:10:08.123Z,60.50
2018-05-08T00:12:35.607Z,60.90
2018-05-08T00:15:03.199Z,60.70
2018-05-08T00:17:31.089Z,60.90
2018-05-08T00:19:58.600Z,60.90
2018-05-08T00:22:26.115Z,60.80
2018-05-08T00:24:54.024Z,61.00
2018-05-08T00:27:21.518Z,61.00
2018-05-08T00:29:49.019Z,61.10
2018-05-08T00:32:16.503Z,61.30
2018-05-08T00:34:44.408Z,61.30
2018-05-08T00:37:11.896Z,61.30
2018-05-08T00:39:39.406Z,61.40
2018-05-08T00:42:06.895Z,61.60
2018-05-08T00:44:34.799Z,61.50
2018-05-08T00:47:02.309Z,61.50
2018-05-08T00:49:29.819Z,61.50
2018-05-08T00:51:57.703Z,61.60
2018-05-08T00:54:37.516Z,61.70
2018-05-08T00:57:05.004Z,61.70
2018-05-08T00:59:32.512Z,61.70
2018-05-08T01:02:00.401Z,61.90
2018-05-08T01:04:27.928Z,61.90
2018-05-08T01:06:55.420Z,62.00
2018-05-08T01:09:23.327Z,62.20
2018-05-08T01:11:50.811Z,62.10
2018-05-08T01:14:18.317Z,62.30
2018-05-08T01:16:45.828Z,62.40
2018-05-08T01:19:13.740Z,62.60
2018-05-08T01:21:41.276Z,62.60
2018-05-08T01:24:09.171Z,62.60
2018-05-08T01:26:36.679Z,62.70
2018-05-08T01:29:04.167Z,62.90
2018-05-08T01:31:31.691Z,62.90
2018-05-08T01:33:59.187Z,63.10
2018-05-08T01:36:26.695Z,63.10
2018-05-08T01:38:54.188Z,63.00
2018-05-08T01:41:21.696Z,63.10
2018-05-08T01:43:49.203Z,63.10
2018-05-08T01:46:16.711Z,63.00
2018-05-08T01:48:44.212Z,63.10
2018-05-08T01:51:11.721Z,63.00
2018-05-08T01:53:39.212Z,63.00
2018-05-08T01:56:07.116Z,63.00
2018-05-08T01:58:34.611Z,63.00
2018-05-08T02:01:02.115Z,63.10
2018-05-08T02:03:29.607Z,63.00
2018-05-08T02:05:57.506Z,63.10
2018-05-08T02:08:24.991Z,63.20
2018-05-08T02:10:52.495Z,62.90
2018-05-08T02:13:19.987Z,62.70
2018-05-08T02:15:47.893Z,62.90
2018-05-08T02:18:15.392Z,62.90
2018-05-08T02:20:42.904Z,62.80
2018-05-08T02:23:10.400Z,62.80
2018-05-08T02:25:37.905Z,62.70
2018-05-08T02:28:05.400Z,62.50
2018-05-08T02:30:32.910Z,62.60
2018-05-08T02:33:00.395Z,62.40
2018-05-08T02:35:27.903Z,62.40
2018-05-08T02:37:55.403Z,62.40
2018-05-08T02:40:23.326Z,62.40
2018-05-08T02:42:50.811Z,62.40
2018-05-08T02:45:18.308Z,62.40
2018-05-08T02:47:45.812Z,62.60
2018-05-08T02:50:13.302Z,62.60
2018-05-08T02:52:40.848Z,62.70
2018-05-08T02:55:08.329Z,62.70
2018-05-08T02:57:35.841Z,62.90
2018-05-08T03:00:03.335Z,62.90
2018-05-08T03:02:30.848Z,63.00
2018-05-08T03:04:58.395Z,62.80
2018-05-08T03:07:26.605Z,62.60
2018-05-08T03:09:54.104Z,62.60
2018-05-08T03:12:21.607Z,62.90
2018-05-08T03:14:49.103Z,62.60
2018-05-08T03:17:17.006Z,62.30
2018-05-08T03:19:44.499Z,62.30
2018-05-08T03:22:12.048Z,62.30
2018-05-08T03:24:39.592Z,62.50
2018-05-08T03:27:07.491Z,62.60
2018-05-08T03:29:34.988Z,62.60
2018-05-08T03:32:02.500Z,62.40
2018-05-08T03:34:29.988Z,62.40
2018-05-08T03:36:57.892Z,62.30
2018-05-08T03:39:25.423Z,62.30
2018-05-08T03:41:52.916Z,62.40
2018-05-08T03:44:20.808Z,62.30
2018-05-08T03:46:48.315Z,62.30
2018-05-08T03:49:15.812Z,62.30
2018-05-08T03:51:43.324Z,62.20
2018-05-08T03:54:10.816Z,62.50
2018-05-08T03:56:38.328Z,62.30
2018-05-08T03:59:05.833Z,62.40
2018-05-08T04:01:45.249Z,62.40
2018-05-08T04:04:24.543Z,62.50
2018-05-08T04:07:05.869Z,62.60
2018-05-08T04:09:33.359Z,62.30
2018-05-08T04:12:00.868Z,62.40
2018-05-08T04:14:28.363Z,62.40
2018-05-08T04:16:55.851Z,62.60
2018-05-08T04:19:23.363Z,62.70
2018-05-08T04:21:51.268Z,62.80
2018-05-08T04:24:18.777Z,62.80
2018-05-08T04:26:46.292Z,62.90
2018-05-08T04:29:14.192Z,62.70
2018-05-08T04:31:41.685Z,62.70
2018-05-08T04:34:09.196Z,62.60
2018-05-08T04:36:36.698Z,62.70
2018-05-08T04:39:04.211Z,62.60
2018-05-08T04:41:31.711Z,62.40
2018-05-08T04:43:59.220Z,62.60
2018-05-08T04:46:26.706Z,62.80
2018-05-08T04:48:54.211Z,62.80
2018-05-08T04:51:21.709Z,62.60
2018-05-08T04:53:49.612Z,62.60
2018-05-08T04:56:17.100Z,62.60
2018-05-08T04:58:44.611Z,62.60
2018-05-08T05:01:12.095Z,62.90
2018-05-08T05:03:39.596Z,62.60
2018-05-08T05:06:07.135Z,62.60
2018-05-08T05:08:35.036Z,62.70
2018-05-08T05:11:02.618Z,62.70
2018-05-08T05:13:30.064Z,62.80
2018-05-08T05:15:57.946Z,63.00
2018-05-08T05:18:25.847Z,62.80
2018-05-08T05:20:53.347Z,62.80
2018-05-08T05:23:20.860Z,62.40
2018-05-08T05:25:48.748Z,62.80
2018-05-08T05:28:16.652Z,62.70
2018-05-08T05:30:44.216Z,62.70
2018-05-08T05:33:11.727Z,62.80
2018-05-08T05:35:39.211Z,62.80
2018-05-08T05:38:06.717Z,62.50
2018-05-08T05:40:34.619Z,62.20
2018-05-08T05:43:02.108Z,62.20
2018-05-08T05:45:29.611Z,61.90
2018-05-08T05:47:57.104Z,62.00
2018-05-08T05:50:25.005Z,60.90
2018-05-08T05:52:52.500Z,60.90
2018-05-08T05:55:20.003Z,60.90
2018-05-08T05:57:47.488Z,59.80
2018-05-08T06:00:14.987Z,59.80
2018-05-08T06:02:42.475Z,59.30
2018-05-08T06:05:09.989Z,58.00
2018-05-08T06:07:37.475Z,57.60
2018-05-08T06:10:05.376Z,57.10
2018-05-08T06:12:32.859Z,57.10
2018-05-08T06:15:00.372Z,56.60
2018-05-08T06:17:27.864Z,56.60
2018-05-08T06:19:55.772Z,55.20
2018-05-08T06:22:23.260Z,55.20
2018-05-08T06:24:50.767Z,54.60
2018-05-08T06:27:18.251Z,54.10
2018-05-08T06:29:45.755Z,53.50
2018-05-08T06:32:13.248Z,52.90
2018-05-08T06:34:40.775Z,53.40
2018-05-08T06:37:08.751Z,51.90
2018-05-08T06:39:36.750Z,52.60
2018-05-08T06:42:04.161Z,52.60
2018-05-08T06:44:31.668Z,52.00
2018-05-08T06:46:59.163Z,51.40
2018-05-08T06:49:26.675Z,51.60
2018-05-08T06:51:54.168Z,50.80
2018-05-08T06:54:21.677Z,51.20
2018-05-08T06:56:49.172Z,51.00
2018-05-08T06:59:16.679Z,50.90
2018-05-08T07:01:44.162Z,50.10
2018-05-08T07:04:11.656Z,50.70
2018-05-08T07:06:39.555Z,49.60
2018-05-08T07:09:07.058Z,49.60
2018-05-08T07:11:34.563Z,50.30
2018-05-08T07:14:02.053Z,49.30
2018-05-08T07:16:29.564Z,49.60
2018-05-08T07:18:57.052Z,49.50
2018-05-08T07:21:24.560Z,49.50
2018-05-08T07:23:52.570Z,49.30
2018-05-08T07:26:20.056Z,49.30
2018-05-08T07:28:47.540Z,49.30
2018-05-08T07:31:15.147Z,49.40
2018-05-08T07:33:43.032Z,49.60
2018-05-08T07:36:10.997Z,49.20
2018-05-08T07:38:38.487Z,49.20
2018-05-08T07:41:06.392Z,47.50
2018-05-08T07:43:33.887Z,47.50
2018-05-08T07:46:01.395Z,47.30
2018-05-08T07:48:29.279Z,47.80
2018-05-08T07:50:57.183Z,47.30
2018-05-08T07:53:24.673Z,47.30
2018-05-08T07:55:52.177Z,48.40
2018-05-08T07:58:19.664Z,47.30
2018-05-08T08:00:47.168Z,47.40
2018-05-08T08:03:14.727Z,47.50
2018-05-08T08:05:42.239Z,47.90
2018-05-08T08:08:09.728Z,47.10
2018-05-08T08:10:37.231Z,47.10
2018-05-08T08:13:05.111Z,46.60
2018-05-08T08:15:33.008Z,47.80
2018-05-08T08:18:00.558Z,47.80
2018-05-08T08:20:28.456Z,46.50
2018-05-08T08:22:56.340Z,46.30
2018-05-08T08:25:23.843Z,46.30
2018-05-08T08:27:51.332Z,46.10
2018-05-08T08:30:18.852Z,46.40
2018-05-08T08:32:46.338Z,45.50
2018-05-08T08:35:13.827Z,44.70
2018-05-08T08:37:41.332Z,46.20
2018-05-08T08:40:08.828Z,46.40
2018-05-08T08:42:36.811Z,45.10
2018-05-08T08:45:04.700Z,45.00
2018-05-08T08:47:32.234Z,45.00
2018-05-08T08:50:00.128Z,45.80
2018-05-08T08:52:28.037Z,44.70
2018-05-08T08:54:55.587Z,44.60
2018-05-08T08:57:23.487Z,46.60
2018-05-08T08:59:51.035Z,46.60
2018-05-08T09:02:18.937Z,45.40
2018-05-08T09:04:46.489Z,45.40
2018-05-08T09:07:14.389Z,45.00
2018-05-08T09:09:41.881Z,45.00
2018-05-08T09:12:09.388Z,45.40
2018-05-08T09:14:36.871Z,44.30
2018-05-08T09:17:04.451Z,44.50
2018-05-08T09:19:32.336Z,43.80
2018-05-08T09:22:00.230Z,44.10
2018-05-08T09:24:27.717Z,44.10
2018-05-08T09:26:55.240Z,44.80
2018-05-08T09:29:22.727Z,44.80
2018-05-08T09:31:50.634Z,44.40
2018-05-08T09:34:18.122Z,44.30
2018-05-08T09:36:45.623Z,45.10
2018-05-08T09:39:13.123Z,44.00
2018-05-08T09:41:41.028Z,45.20
2018-05-08T09:44:08.520Z,45.20
2018-05-08T09:46:36.039Z,43.60
2018-05-08T09:49:03.974Z,43.60
2018-05-08T09:51:31.447Z,43.60
2018-05-08T09:53:58.931Z,43.50
2018-05-08T09:56:26.452Z,42.60
2018-05-08T09:58:53.944Z,43.00
2018-05-08T10:01:21.439Z,43.30
2018-05-08T10:03:49.031Z,43.20
2018-05-08T10:06:16.526Z,44.10
2018-05-08T10:08:44.431Z,43.00
2018-05-08T10:11:11.919Z,42.90
2018-05-08T10:13:39.424Z,44.20
2018-05-08T10:16:06.915Z,43.40
2018-05-08T10:18:34.423Z,43.50
2018-05-08T10:21:01.907Z,44.40
2018-05-08T10:23:29.408Z,42.60
2018-05-08T10:25:56.912Z,42.80
2018-05-08T10:28:24.428Z,44.10
2018-05-08T10:30:51.915Z,43.90
2018-05-08T10:33:19.419Z,43.10
2018-05-08T10:35:47.338Z,42.80
2018-05-08T10:38:14.849Z,42.70
2018-05-08T10:40:42.347Z,43.60
2018-05-08T10:43:09.860Z,44.30
2018-05-08T10:45:37.350Z,44.20
2018-05-08T10:48:04.857Z,43.50
2018-05-08T10:50:32.352Z,42.90
2018-05-08T10:52:59.867Z,43.70
2018-05-08T10:55:27.356Z,43.20
2018-05-08T10:57:55.340Z,43.30
2018-05-08T11:00:23.320Z,43.00
2018-05-08T11:02:51.215Z,43.40
2018-05-08T11:05:19.181Z,42.60
2018-05-08T11:07:47.080Z,42.00
2018-05-08T11:10:14.564Z,42.00
2018-05-08T11:12:42.071Z,42.70
2018-05-08T11:15:09.564Z,42.00
2018-05-08T11:17:37.073Z,42.30
2018-05-08T11:20:04.615Z,41.10
2018-05-08T11:22:32.544Z,41.10
2018-05-08T11:25:00.035Z,41.10
2018-05-08T11:27:27.524Z,41.40
2018-05-08T11:29:55.028Z,41.20
2018-05-08T11:32:22.519Z,41.70
2018-05-08T11:34:50.032Z,41.60
2018-05-08T11:37:23.163Z,41.30
2018-05-08T11:39:51.067Z,40.30
2018-05-08T11:42:18.559Z,40.30
2018-05-08T11:44:46.105Z,40.20
2018-05-08T11:47:14.064Z,39.70
2018-05-08T11:49:41.960Z,39.80
2018-05-08T11:52:09.447Z,39.80
2018-05-08T11:54:36.951Z,40.20
2018-05-08T11:57:04.439Z,40.20
2018-05-08T11:59:31.939Z,41.30
2018-05-08T12:01:59.495Z,40.80
2018-05-08T12:04:27.394Z,40.60
2018-05-08T12:06:54.880Z,40.60
2018-05-08T12:09:22.390Z,40.70
2018-05-08T12:11:49.879Z,41.00
2018-05-08T12:14:17.464Z,40.80
2018-05-08T12:16:45.357Z,40.60
2018-05-08T12:19:12.868Z,40.60
2018-05-08T12:21:40.372Z,40.80
2018-05-08T12:24:08.279Z,40.00
2018-05-08T12:26:36.168Z,39.60
2018-05-08T12:29:03.719Z,39.60
2018-05-08T12:31:31.609Z,40.80
2018-05-08T12:33:59.127Z,40.80
2018-05-08T12:36:26.616Z,41.10
2018-05-08T12:38:54.127Z,40.00
2018-05-08T12:41:21.730Z,39.50
2018-05-08T12:43:49.131Z,38.90
2018-05-08T12:46:16.615Z,39.40
2018-05-08T12:48:44.123Z,39.90
2018-05-08T12:51:11.608Z,39.40
2018-05-08T12:53:39.101Z,39.80
2018-05-08T12:56:06.703Z,39.90
2018-05-08T12:58:34.503Z,39.30
2018-05-08T13:01:02.064Z,39.30
2018-05-08T13:03:29.949Z,39.00
2018-05-08T13:05:57.454Z,39.00
2018-05-08T13:08:24.953Z,37.30
2018-05-08T13:10:52.524Z,38.50
2018-05-08T13:13:19.964Z,39.10
2018-05-08T13:15:47.470Z,36.00
2018-05-08T13:18:14.989Z,35.80
2018-05-08T13:20:42.486Z,36.30
2018-05-08T13:23:09.975Z,35.10
2018-05-08T13:25:37.571Z,35.40
2018-05-08T13:28:05.148Z,35.00
2018-05-08T13:30:33.054Z,36.00
2018-05-08T13:33:00.547Z,36.00
2018-05-08T13:35:28.057Z,36.00
2018-05-08T13:37:55.549Z,36.10
2018-05-08T13:40:23.447Z,37.80
2018-05-08T13:42:50.938Z,37.80
2018-05-08T13:45:18.443Z,35.70
2018-05-08T13:47:45.936Z,36.00
2018-05-08T13:50:13.852Z,35.00
2018-05-08T13:52:41.343Z,35.00
2018-05-08T13:55:08.898Z,33.50
2018-05-08T13:57:36.751Z,33.60
2018-05-08T14:00:04.647Z,34.30
2018-05-08T14:02:32.169Z,34.20
2018-05-08T14:04:59.677Z,33.30
2018-05-08T14:07:27.168Z,35.00
2018-05-08T14:09:54.671Z,34.20
2018-05-08T14:12:22.164Z,35.50
2018-05-08T14:14:49.688Z,35.50
2018-05-08T14:17:17.175Z,35.50
2018-05-08T14:19:44.671Z,36.00
2018-05-08T14:22:12.176Z,36.40
2018-05-08T14:24:39.745Z,35.50
2018-05-08T14:27:07.251Z,35.40
2018-05-08T14:29:34.750Z,36.30
2018-05-08T14:32:02.336Z,38.00
2018-05-08T14:34:30.231Z,35.50
2018-05-08T14:36:58.191Z,35.00
2018-05-08T14:39:25.692Z,35.00
2018-05-08T14:41:53.217Z,35.70
2018-05-08T14:44:20.703Z,36.80
2018-05-08T14:46:48.288Z,35.70
2018-05-08T14:49:16.217Z,36.30
2018-05-08T14:51:43.765Z,36.30
2018-05-08T14:54:11.266Z,36.50
2018-05-08T14:56:38.776Z,36.20
2018-05-08T14:59:06.272Z,36.50
2018-05-08T15:01:33.823Z,35.80
2018-05-08T15:04:01.713Z,35.80
2018-05-08T15:06:29.612Z,34.40
2018-05-08T15:08:57.104Z,34.40
2018-05-08T15:11:24.639Z,34.50
2018-05-08T15:13:52.523Z,34.50
2018-05-08T15:16:20.441Z,35.20
2018-05-08T15:18:47.927Z,35.20
2018-05-08T15:21:15.432Z,33.80
2018-05-08T15:23:43.315Z,36.00
2018-05-08T15:26:11.216Z,36.00
2018-05-08T15:28:38.710Z,36.00
2018-05-08T15:31:06.219Z,35.50
2018-05-08T15:33:33.714Z,36.20
2018-05-08T15:36:01.621Z,36.30
2018-05-08T15:38:29.107Z,36.30
2018-05-08T15:40:56.639Z,36.30
2018-05-08T15:43:24.519Z,36.40
2018-05-08T15:45:52.408Z,36.50
2018-05-08T15:48:19.988Z,36.50
2018-05-08T15:50:47.532Z,36.60
2018-05-08T15:53:15.440Z,36.80
2018-05-08T15:55:42.936Z,36.80
2018-05-08T15:58:10.448Z,37.00
2018-05-08T16:00:38.336Z,37.20
2018-05-08T16:03:06.235Z,37.60
2018-05-08T16:05:33.731Z,37.60
2018-05-08T16:08:02.080Z,37.10
2018-05-08T16:10:29.991Z,36.70
2018-05-08T16:12:57.504Z,36.70
2018-05-08T16:15:25.000Z,37.10
2018-05-08T16:17:52.900Z,37.40
2018-05-08T16:20:20.447Z,37.40
2018-05-08T16:22:48.356Z,37.60
2018-05-08T16:25:15.925Z,37.60
2018-05-08T16:27:43.498Z,36.90
2018-05-08T16:30:11.050Z,37.00
2018-05-08T16:32:38.508Z,37.60
2018-05-08T16:35:06.395Z,37.90
2018-05-08T16:37:34.304Z,38.00
2018-05-08T16:40:01.929Z,38.00
2018-05-08T16:42:29.375Z,38.10
2018-05-08T16:44:56.859Z,37.70
2018-05-08T16:47:24.371Z,37.20
2018-05-08T16:49:52.268Z,38.50
2018-05-08T16:52:19.979Z,38.50
2018-05-08T16:54:47.484Z,38.40
2018-05-08T16:57:14.987Z,38.70
2018-05-08T16:59:42.552Z,38.90
2018-05-08T17:02:10.116Z,39.10
2018-05-08T17:04:38.088Z,38.90
2018-05-08T17:07:06.006Z,38.90
2018-05-08T17:09:33.508Z,38.90
2018-05-08T17:12:01.012Z,39.40
2018-05-08T17:14:28.904Z,39.90
2018-05-08T17:16:56.391Z,39.90
2018-05-08T17:19:23.896Z,39.90
2018-05-08T17:21:51.389Z,40.20
2018-05-08T17:24:19.026Z,39.60
2018-05-08T17:26:46.452Z,39.70
2018-05-08T17:29:14.451Z,39.90
2018-05-08T17:31:41.936Z,39.90
2018-05-08T17:34:09.445Z,39.30
2018-05-08T17:36:36.932Z,40.20
2018-05-08T17:39:04.438Z,39.70
2018-05-08T17:41:31.984Z,41.00
2018-05-08T17:43:59.883Z,41.40
2018-05-08T17:46:27.376Z,41.40
2018-05-08T17:48:54.916Z,41.30
2018-05-08T17:51:22.808Z,41.40
2018-05-08T17:53:50.359Z,41.40
2018-05-08T17:56:18.252Z,42.10
2018-05-08T17:58:45.768Z,42.10
2018-05-08T18:01:13.252Z,41.70
2018-05-08T18:03:41.495Z,42.20
2018-05-08T18:06:09.040Z,42.20
2018-05-08T18:08:36.941Z,42.30
2018-05-08T18:11:04.440Z,42.30
2018-05-08T18:13:31.944Z,42.00
2018-05-08T18:15:59.432Z,42.20
2018-05-08T18:18:27.407Z,42.60
2018-05-08T18:20:55.289Z,43.20
2018-05-08T18:23:23.196Z,42.90
2018-05-08T18:25:50.688Z,42.90
2018-05-08T18:28:18.199Z,43.70
2018-05-08T18:30:45.783Z,44.30
2018-05-08T18:33:13.692Z,46.30
2018-05-08T18:35:41.241Z,46.30
2018-05-08T18:38:09.159Z,48.10
2018-05-08T18:40:36.647Z,48.10
2018-05-08T18:43:04.136Z,45.50
2018-05-08T18:45:31.643Z,47.60
2018-05-08T18:47:59.613Z,47.20
2018-05-08T18:50:27.536Z,47.80
2018-05-08T18:52:55.028Z,47.80
2018-05-08T18:55:22.540Z,47.80
2018-05-08T18:57:50.473Z,48.10
2018-05-08T19:00:20.803Z,48.10
2018-05-08T19:02:48.303Z,48.10
2018-05-08T19:05:15.807Z,47.20
2018-05-08T19:07:43.694Z,47.20
2018-05-08T19:10:11.195Z,47.20
2018-05-08T19:12:38.719Z,48.20
2018-05-08T19:15:12.316Z,47.70
2018-05-08T19:17:39.815Z,47.70
2018-05-08T19:20:07.724Z,48.30
2018-05-08T19:22:35.217Z,48.20
2018-05-08T19:25:02.719Z,48.10
2018-05-08T19:27:30.608Z,49.60
2018-05-08T19:30:04.167Z,49.20
2018-05-08T19:32:31.655Z,49.10
2018-05-08T19:35:04.788Z,49.10
2018-05-08T19:37:38.236Z,48.70
2018-05-08T19:40:05.743Z,48.70
2018-05-08T19:42:33.227Z,48.80
2018-05-08T19:45:00.738Z,49.30
2018-05-08T19:47:28.227Z,49.80
2018-05-08T19:49:55.742Z,50.70
2018-05-08T19:52:23.250Z,50.50
2018-05-08T19:54:50.763Z,51.30
2018-05-08T19:57:18.257Z,52.50
2018-05-08T19:59:45.763Z,50.90
2018-05-08T20:02:13.261Z,51.10
2018-05-08T20:04:40.814Z,50.90
2018-05-08T20:07:08.307Z,51.00
2018-05-08T20:09:35.813Z,51.40
2018-05-08T20:12:03.300Z,51.40
2018-05-08T20:14:31.187Z,51.90
2018-05-08T20:16:59.167Z,52.10
2018-05-08T20:19:26.588Z,52.10
2018-05-08T20:21:54.099Z,54.50
2018-05-08T20:24:22.011Z,55.20
2018-05-08T20:26:49.515Z,55.20
2018-05-08T20:29:17.029Z,55.30
2018-05-08T20:31:44.536Z,55.90
2018-05-08T20:34:12.033Z,55.90
2018-05-08T20:36:39.545Z,56.30
2018-05-08T20:39:07.440Z,56.50
2018-05-08T20:41:34.943Z,56.50
2018-05-08T20:44:02.440Z,56.50
2018-05-08T20:46:29.956Z,56.40
2018-05-08T20:48:57.453Z,56.00
2018-05-08T20:51:24.956Z,55.20
2018-05-08T20:53:52.550Z,56.70
2018-05-08T20:56:20.455Z,55.70
2018-05-08T20:58:47.950Z,55.80
2018-05-08T21:01:15.563Z,57.60
2018-05-08T21:03:43.355Z,58.10
2018-05-08T21:06:11.255Z,58.50
2018-05-08T21:08:38.800Z,58.50
2018-05-08T21:11:06.705Z,58.60
2018-05-08T21:13:34.200Z,58.60
2018-05-08T21:16:01.709Z,58.70
2018-05-08T21:18:29.296Z,58.90
2018-05-08T21:20:57.204Z,58.90
2018-05-08T21:23:24.696Z,58.90
2018-05-08T21:25:52.200Z,59.70
2018-05-08T21:28:25.391Z,59.80
2018-05-08T21:30:58.578Z,60.30
2018-05-08T21:33:26.064Z,59.70
2018-05-08T21:35:53.588Z,60.50
2018-05-08T21:38:21.081Z,60.60
2018-05-08T21:40:48.600Z,60.00
2018-05-08T21:43:16.088Z,60.60
2018-05-08T21:45:43.976Z,60.90
2018-05-08T21:48:11.479Z,60.90
2018-05-08T21:50:38.963Z,61.00
2018-05-08T21:53:06.472Z,60.90
2018-05-08T21:55:34.361Z,60.20
2018-05-08T21:58:02.267Z,58.40
2018-05-08T22:00:29.755Z,58.40
2018-05-08T22:02:57.345Z,59.20
2018-05-08T22:05:25.159Z,59.10
2018-05-08T22:07:53.059Z,59.90
2018-05-08T22:10:20.556Z,59.90
2018-05-08T22:12:48.061Z,59.80
2018-05-08T22:15:15.551Z,59.70
2018-05-08T22:17:43.462Z,59.70
2018-05-08T22:20:11.048Z,59.70
2018-05-08T22:22:38.475Z,59.40
2018-05-08T22:25:06.360Z,59.80
2018-05-08T22:27:34.275Z,59.80
2018-05-08T22:30:01.763Z,59.80
2018-05-08T22:32:29.267Z,59.50
2018-05-08T22:34:57.169Z,59.60
2018-05-08T22:37:24.679Z,59.60
2018-05-08T22:39:52.169Z,59.40
2018-05-08T22:42:19.681Z,59.30
2018-05-08T22:44:47.169Z,59.10
2018-05-08T22:47:14.674Z,58.90
2018-05-08T22:49:42.175Z,60.00
2018-05-08T22:52:10.073Z,59.90
2018-05-08T22:54:37.559Z,59.90
2018-05-08T22:57:05.065Z,59.50
2018-05-08T22:59:32.555Z,59.70
2018-05-08T23:02:00.076Z,59.70
2018-05-08T23:04:27.611Z,59.80
2018-05-08T23:06:55.512Z,60.00
2018-05-08T23:09:23.009Z,60.00
2018-05-08T23:11:50.508Z,61.30
2018-05-08T23:14:18.011Z,60.60
2018-05-08T23:16:45.509Z,60.60
2018-05-08T23:19:13.011Z,60.90
2018-05-08T23:21:40.500Z,60.90
2018-05-08T23:24:08.009Z,61.10
2018-05-08T23:26:35.494Z,60.90
2018-05-08T23:29:03.040Z,60.90
2018-05-08T23:31:30.506Z,61.10
2018-05-08T23:33:58.415Z,61.30
2018-05-08T23:36:25.899Z,61.30
2018-05-08T23:38:53.407Z,61.70
2018-05-08T23:41:20.892Z,61.60
2018-05-08T23:43:48.792Z,62.20
2018-05-08T23:46:16.291Z,62.20
2018-05-08T23:48:43.800Z,62.30
2018-05-08T23:51:11.287Z,62.90
2018-05-08T23:53:39.183Z,63.40
2018-05-08T23:56:06.667Z,63.40
2018-05-08T23:58:34.173Z,63.70
